sensor_id;sensor_type;location;lat;lon;timestamp;P1;durP1;ratioP1;P2;durP2;ratioP2
57575;SDS011;43412;-33.800;150.804;2022-08-27T00:00:31;1.00;;;0.20;;
57575;SDS011;43412;-33.800;150.804;2022-08-27T00:02:59;1.98;;;0.20;;
57575;SDS011;43412;-33.800;150.804;2022-08-27T00:05:27;1.45;;;0.20;;
57575;SDS011;43412;-33.800;150.804;2022-08-27T00:07:54;0.73;;;0.20;;
57575;SDS011;43412;-33.800;150.804;2022-08-27T00:10:23;0.43;;;0.30;;
57575;SDS011;43412;-33.800;150.804;2022-08-27T00:12:52;2.28;;;0.43;;
57575;SDS011;43412;-33.800;150.804;2022-08-27T00:15:21;2.85;;;0.40;;
57575;SDS011;43412;-33.800;150.804;2022-08-27T00:17:49;1.38;;;0.40;;
57575;SDS011;43412;-33.800;150.804;2022-08-27T00:20:19;0.63;;;0.45;;
57575;SDS011;43412;-33.800;150.804;2022-08-27T00:22:48;0.70;;;0.40;;
57575;SDS011;43412;-33.800;150.804;2022-08-27T00:25:15;2.20;;;0.40;;
57575;SDS011;43412;-33.800;150.804;2022-08-27T00:27:43;0.68;;;0.50;;
57575;SDS011;43412;-33.800;150.804;2022-08-27T00:30:13;1.13;;;0.30;;
57575;SDS011;43412;-33.800;150.804;2022-08-27T00:32:43;1.65;;;0.28;;
57575;SDS011;43412;-33.800;150.804;2022-08-27T00:35:11;1.85;;;0.50;;
57575;SDS011;43412;-33.800;150.804;2022-08-27T00:37:40;1.83;;;0.40;;
57575;SDS011;43412;-33.800;150.804;2022-08-27T00:40:10;1.77;;;0.30;;
57575;SDS011;43412;-33.800;150.804;2022-08-27T00:42:42;0.75;;;0.20;;
57575;SDS011;43412;-33.800;150.804;2022-08-27T00:45:11;0.80;;;0.30;;
57575;SDS011;43412;-33.800;150.804;2022-08-27T00:47:42;1.13;;;0.35;;
57575;SDS011;43412;-33.800;150.804;2022-08-27T00:50:17;3.55;;;0.82;;
57575;SDS011;43412;-33.800;150.804;2022-08-27T00:52:53;1.02;;;0.30;;
57575;SDS011;43412;-33.800;150.804;2022-08-27T00:55:29;0.95;;;0.25;;
57575;SDS011;43412;-33.800;150.804;2022-08-27T01:00:54;1.25;;;0.30;;
57575;SDS011;43412;-33.800;150.804;2022-08-27T01:03:22;0.47;;;0.45;;
57575;SDS011;43412;-33.800;150.804;2022-08-27T01:05:51;0.82;;;0.20;;
57575;SDS011;43412;-33.800;150.804;2022-08-27T01:08:22;2.85;;;0.30;;
57575;SDS011;43412;-33.800;150.804;2022-08-27T01:10:53;0.28;;;0.20;;
57575;SDS011;43412;-33.800;150.804;2022-08-27T01:13:26;0.63;;;0.47;;
57575;SDS011;43412;-33.800;150.804;2022-08-27T01:15:56;1.35;;;0.10;;
57575;SDS011;43412;-33.800;150.804;2022-08-27T01:18:29;0.52;;;0.20;;
57575;SDS011;43412;-33.800;150.804;2022-08-27T01:23:43;1.00;;;0.20;;
57575;SDS011;43412;-33.800;150.804;2022-08-27T01:26:14;0.50;;;0.00;;
57575;SDS011;43412;-33.800;150.804;2022-08-27T01:28:42;0.38;;;0.10;;
57575;SDS011;43412;-33.800;150.804;2022-08-27T01:31:10;0.22;;;0.10;;
57575;SDS011;43412;-33.800;150.804;2022-08-27T01:33:38;0.20;;;0.10;;
57575;SDS011;43412;-33.800;150.804;2022-08-27T01:36:06;0.57;;;0.10;;
57575;SDS011;43412;-33.800;150.804;2022-08-27T01:38:33;0.30;;;0.10;;
57575;SDS011;43412;-33.800;150.804;2022-08-27T01:41:01;0.55;;;0.25;;
57575;SDS011;43412;-33.800;150.804;2022-08-27T01:43:29;3.88;;;0.73;;
57575;SDS011;43412;-33.800;150.804;2022-08-27T01:45:56;0.50;;;0.10;;
57575;SDS011;43412;-33.800;150.804;2022-08-27T01:48:24;1.63;;;0.20;;
57575;SDS011;43412;-33.800;150.804;2022-08-27T01:50:51;0.82;;;0.20;;
57575;SDS011;43412;-33.800;150.804;2022-08-27T01:53:20;0.20;;;0.10;;
57575;SDS011;43412;-33.800;150.804;2022-08-27T01:55:50;1.10;;;0.20;;
57575;SDS011;43412;-33.800;150.804;2022-08-27T01:58:20;0.47;;;0.10;;
57575;SDS011;43412;-33.800;150.804;2022-08-27T02:00:51;0.63;;;0.35;;
57575;SDS011;43412;-33.800;150.804;2022-08-27T02:03:21;0.32;;;0.10;;
57575;SDS011;43412;-33.800;150.804;2022-08-27T02:05:49;0.43;;;0.10;;
57575;SDS011;43412;-33.800;150.804;2022-08-27T02:08:16;1.00;;;0.10;;
57575;SDS011;43412;-33.800;150.804;2022-08-27T02:10:49;0.65;;;0.05;;
57575;SDS011;43412;-33.800;150.804;2022-08-27T02:13:17;0.85;;;0.00;;
57575;SDS011;43412;-33.800;150.804;2022-08-27T02:15:44;0.15;;;0.00;;
57575;SDS011;43412;-33.800;150.804;2022-08-27T02:18:12;0.80;;;0.10;;
57575;SDS011;43412;-33.800;150.804;2022-08-27T02:20:41;1.83;;;0.38;;
57575;SDS011;43412;-33.800;150.804;2022-08-27T02:23:10;0.65;;;0.22;;
57575;SDS011;43412;-33.800;150.804;2022-08-27T02:25:38;0.60;;;0.55;;
57575;SDS011;43412;-33.800;150.804;2022-08-27T02:28:06;0.10;;;0.10;;
57575;SDS011;43412;-33.800;150.804;2022-08-27T02:30:34;0.10;;;0.10;;
57575;SDS011;43412;-33.800;150.804;2022-08-27T02:33:03;0.30;;;0.10;;
57575;SDS011;43412;-33.800;150.804;2022-08-27T02:35:31;0.35;;;0.10;;
57575;SDS011;43412;-33.800;150.804;2022-08-27T02:38:03;0.20;;;0.10;;
57575;SDS011;43412;-33.800;150.804;2022-08-27T02:40:31;1.58;;;0.10;;
57575;SDS011;43412;-33.800;150.804;2022-08-27T02:42:58;0.90;;;0.20;;
57575;SDS011;43412;-33.800;150.804;2022-08-27T02:45:26;0.40;;;0.32;;
57575;SDS011;43412;-33.800;150.804;2022-08-27T02:47:53;0.20;;;0.10;;
57575;SDS011;43412;-33.800;150.804;2022-08-27T02:50:21;0.90;;;0.17;;
57575;SDS011;43412;-33.800;150.804;2022-08-27T02:52:48;0.17;;;0.10;;
57575;SDS011;43412;-33.800;150.804;2022-08-27T02:55:16;0.30;;;0.10;;
57575;SDS011;43412;-33.800;150.804;2022-08-27T02:57:43;0.30;;;0.00;;
57575;SDS011;43412;-33.800;150.804;2022-08-27T03:00:12;0.20;;;0.00;;
57575;SDS011;43412;-33.800;150.804;2022-08-27T03:02:42;0.00;;;0.00;;
57575;SDS011;43412;-33.800;150.804;2022-08-27T03:05:10;0.25;;;0.05;;
57575;SDS011;43412;-33.800;150.804;2022-08-27T03:07:38;0.00;;;0.00;;
57575;SDS011;43412;-33.800;150.804;2022-08-27T03:10:07;0.00;;;0.00;;
57575;SDS011;43412;-33.800;150.804;2022-08-27T03:12:36;0.00;;;0.00;;
57575;SDS011;43412;-33.800;150.804;2022-08-27T03:15:04;1.15;;;0.30;;
57575;SDS011;43412;-33.800;150.804;2022-08-27T03:17:33;1.55;;;0.65;;
57575;SDS011;43412;-33.800;150.804;2022-08-27T03:20:19;2.90;;;0.93;;
57575;SDS011;43412;-33.800;150.804;2022-08-27T03:22:47;3.10;;;0.55;;
57575;SDS011;43412;-33.800;150.804;2022-08-27T03:25:14;5.88;;;0.60;;
57575;SDS011;43412;-33.800;150.804;2022-08-27T03:27:42;0.75;;;0.47;;
57575;SDS011;43412;-33.800;150.804;2022-08-27T03:30:11;1.30;;;0.30;;
57575;SDS011;43412;-33.800;150.804;2022-08-27T03:32:43;1.30;;;0.20;;
57575;SDS011;43412;-33.800;150.804;2022-08-27T03:35:11;0.82;;;0.60;;
57575;SDS011;43412;-33.800;150.804;2022-08-27T03:37:39;1.58;;;0.93;;
57575;SDS011;43412;-33.800;150.804;2022-08-27T03:40:07;3.13;;;1.13;;
57575;SDS011;43412;-33.800;150.804;2022-08-27T03:42:35;2.75;;;0.38;;
57575;SDS011;43412;-33.800;150.804;2022-08-27T03:45:04;0.68;;;0.25;;
57575;SDS011;43412;-33.800;150.804;2022-08-27T03:47:33;0.20;;;0.20;;
57575;SDS011;43412;-33.800;150.804;2022-08-27T03:50:02;0.63;;;0.30;;
57575;SDS011;43412;-33.800;150.804;2022-08-27T03:52:31;1.67;;;0.28;;
57575;SDS011;43412;-33.800;150.804;2022-08-27T03:55:00;0.22;;;0.10;;
57575;SDS011;43412;-33.800;150.804;2022-08-27T03:57:29;1.75;;;0.63;;
57575;SDS011;43412;-33.800;150.804;2022-08-27T03:59:57;0.98;;;0.40;;
57575;SDS011;43412;-33.800;150.804;2022-08-27T04:02:26;2.47;;;0.47;;
57575;SDS011;43412;-33.800;150.804;2022-08-27T04:04:53;1.05;;;0.60;;
57575;SDS011;43412;-33.800;150.804;2022-08-27T04:07:22;2.05;;;0.40;;
57575;SDS011;43412;-33.800;150.804;2022-08-27T04:09:49;0.80;;;0.28;;
57575;SDS011;43412;-33.800;150.804;2022-08-27T04:12:17;1.45;;;0.30;;
57575;SDS011;43412;-33.800;150.804;2022-08-27T04:14:44;1.38;;;0.57;;
57575;SDS011;43412;-33.800;150.804;2022-08-27T04:17:12;0.80;;;0.47;;
57575;SDS011;43412;-33.800;150.804;2022-08-27T04:19:39;4.65;;;0.43;;
57575;SDS011;43412;-33.800;150.804;2022-08-27T04:22:06;1.10;;;0.40;;
57575;SDS011;43412;-33.800;150.804;2022-08-27T04:24:34;0.82;;;0.20;;
57575;SDS011;43412;-33.800;150.804;2022-08-27T04:27:03;0.95;;;0.40;;
57575;SDS011;43412;-33.800;150.804;2022-08-27T04:29:31;2.72;;;0.43;;
57575;SDS011;43412;-33.800;150.804;2022-08-27T04:31:59;1.23;;;0.30;;
57575;SDS011;43412;-33.800;150.804;2022-08-27T04:34:26;0.60;;;0.20;;
57575;SDS011;43412;-33.800;150.804;2022-08-27T04:36:55;2.35;;;1.13;;
57575;SDS011;43412;-33.800;150.804;2022-08-27T04:39:23;2.63;;;0.30;;
57575;SDS011;43412;-33.800;150.804;2022-08-27T04:41:53;1.00;;;0.30;;
57575;SDS011;43412;-33.800;150.804;2022-08-27T04:44:21;1.75;;;0.20;;
57575;SDS011;43412;-33.800;150.804;2022-08-27T04:46:53;0.85;;;0.47;;
57575;SDS011;43412;-33.800;150.804;2022-08-27T04:49:23;0.93;;;0.20;;
57575;SDS011;43412;-33.800;150.804;2022-08-27T04:51:51;0.32;;;0.15;;
57575;SDS011;43412;-33.800;150.804;2022-08-27T04:54:20;0.47;;;0.10;;
57575;SDS011;43412;-33.800;150.804;2022-08-27T04:56:49;1.33;;;0.20;;
57575;SDS011;43412;-33.800;150.804;2022-08-27T04:59:17;0.22;;;0.10;;
57575;SDS011;43412;-33.800;150.804;2022-08-27T05:01:44;1.92;;;0.22;;
57575;SDS011;43412;-33.800;150.804;2022-08-27T05:04:13;0.70;;;0.10;;
57575;SDS011;43412;-33.800;150.804;2022-08-27T05:06:43;2.45;;;0.73;;
57575;SDS011;43412;-33.800;150.804;2022-08-27T05:09:12;1.55;;;0.20;;
57575;SDS011;43412;-33.800;150.804;2022-08-27T05:11:41;0.30;;;0.20;;
57575;SDS011;43412;-33.800;150.804;2022-08-27T05:14:10;3.53;;;0.60;;
57575;SDS011;43412;-33.800;150.804;2022-08-27T05:16:39;0.55;;;0.20;;
57575;SDS011;43412;-33.800;150.804;2022-08-27T05:19:07;0.15;;;0.08;;
57575;SDS011;43412;-33.800;150.804;2022-08-27T05:21:42;0.70;;;0.20;;
57575;SDS011;43412;-33.800;150.804;2022-08-27T05:24:12;0.60;;;0.20;;
57575;SDS011;43412;-33.800;150.804;2022-08-27T05:26:40;0.85;;;0.47;;
57575;SDS011;43412;-33.800;150.804;2022-08-27T05:29:08;1.23;;;0.30;;
57575;SDS011;43412;-33.800;150.804;2022-08-27T05:31:36;1.30;;;0.40;;
57575;SDS011;43412;-33.800;150.804;2022-08-27T05:34:04;1.27;;;0.30;;
57575;SDS011;43412;-33.800;150.804;2022-08-27T05:36:33;0.70;;;0.20;;
57575;SDS011;43412;-33.800;150.804;2022-08-27T05:39:02;0.70;;;0.30;;
57575;SDS011;43412;-33.800;150.804;2022-08-27T05:41:31;2.17;;;0.28;;
57575;SDS011;43412;-33.800;150.804;2022-08-27T05:44:00;1.50;;;0.30;;
57575;SDS011;43412;-33.800;150.804;2022-08-27T05:46:30;1.45;;;0.10;;
57575;SDS011;43412;-33.800;150.804;2022-08-27T05:48:58;0.77;;;0.10;;
57575;SDS011;43412;-33.800;150.804;2022-08-27T05:51:28;0.50;;;0.20;;
57575;SDS011;43412;-33.800;150.804;2022-08-27T05:53:58;0.47;;;0.10;;
57575;SDS011;43412;-33.800;150.804;2022-08-27T05:56:32;0.40;;;0.20;;
57575;SDS011;43412;-33.800;150.804;2022-08-27T05:59:01;0.47;;;0.10;;
57575;SDS011;43412;-33.800;150.804;2022-08-27T06:01:48;2.63;;;0.10;;
57575;SDS011;43412;-33.800;150.804;2022-08-27T06:04:18;1.38;;;0.65;;
57575;SDS011;43412;-33.800;150.804;2022-08-27T06:06:46;0.75;;;0.47;;
57575;SDS011;43412;-33.800;150.804;2022-08-27T06:09:16;2.80;;;0.73;;
57575;SDS011;43412;-33.800;150.804;2022-08-27T06:11:46;0.90;;;0.38;;
57575;SDS011;43412;-33.800;150.804;2022-08-27T06:14:14;1.55;;;0.30;;
57575;SDS011;43412;-33.800;150.804;2022-08-27T06:16:41;1.85;;;1.02;;
57575;SDS011;43412;-33.800;150.804;2022-08-27T06:19:09;0.55;;;0.20;;
57575;SDS011;43412;-33.800;150.804;2022-08-27T06:21:37;1.20;;;0.30;;
57575;SDS011;43412;-33.800;150.804;2022-08-27T06:24:06;0.50;;;0.45;;
57575;SDS011;43412;-33.800;150.804;2022-08-27T06:26:37;1.58;;;0.22;;
57575;SDS011;43412;-33.800;150.804;2022-08-27T06:29:06;0.65;;;0.30;;
57575;SDS011;43412;-33.800;150.804;2022-08-27T06:31:34;0.65;;;0.13;;
57575;SDS011;43412;-33.800;150.804;2022-08-27T06:34:03;0.50;;;0.20;;
57575;SDS011;43412;-33.800;150.804;2022-08-27T06:36:32;0.63;;;0.63;;
57575;SDS011;43412;-33.800;150.804;2022-08-27T06:39:05;1.00;;;0.38;;
57575;SDS011;43412;-33.800;150.804;2022-08-27T06:41:33;2.38;;;0.30;;
57575;SDS011;43412;-33.800;150.804;2022-08-27T06:44:00;1.23;;;0.60;;
57575;SDS011;43412;-33.800;150.804;2022-08-27T06:46:29;2.17;;;0.40;;
57575;SDS011;43412;-33.800;150.804;2022-08-27T06:48:58;1.85;;;0.30;;
57575;SDS011;43412;-33.800;150.804;2022-08-27T06:51:27;1.60;;;0.50;;
57575;SDS011;43412;-33.800;150.804;2022-08-27T06:53:59;0.68;;;0.65;;
57575;SDS011;43412;-33.800;150.804;2022-08-27T06:56:28;1.15;;;0.63;;
57575;SDS011;43412;-33.800;150.804;2022-08-27T06:58:58;0.75;;;0.38;;
57575;SDS011;43412;-33.800;150.804;2022-08-27T07:01:28;0.70;;;0.30;;
57575;SDS011;43412;-33.800;150.804;2022-08-27T07:03:58;2.13;;;0.38;;
57575;SDS011;43412;-33.800;150.804;2022-08-27T07:06:28;1.48;;;0.50;;
57575;SDS011;43412;-33.800;150.804;2022-08-27T07:08:57;9.05;;;5.15;;
57575;SDS011;43412;-33.800;150.804;2022-08-27T07:11:26;36.22;;;18.77;;
57575;SDS011;43412;-33.800;150.804;2022-08-27T07:13:56;3.25;;;1.88;;
57575;SDS011;43412;-33.800;150.804;2022-08-27T07:16:25;2.60;;;0.68;;
57575;SDS011;43412;-33.800;150.804;2022-08-27T07:18:54;0.80;;;0.60;;
57575;SDS011;43412;-33.800;150.804;2022-08-27T07:21:24;0.77;;;0.40;;
57575;SDS011;43412;-33.800;150.804;2022-08-27T07:23:52;2.70;;;0.73;;
57575;SDS011;43412;-33.800;150.804;2022-08-27T07:26:24;1.42;;;0.47;;
57575;SDS011;43412;-33.800;150.804;2022-08-27T07:28:51;0.90;;;0.50;;
57575;SDS011;43412;-33.800;150.804;2022-08-27T07:31:20;1.17;;;0.70;;
57575;SDS011;43412;-33.800;150.804;2022-08-27T07:33:48;4.68;;;0.52;;
57575;SDS011;43412;-33.800;150.804;2022-08-27T07:36:16;1.67;;;1.08;;
57575;SDS011;43412;-33.800;150.804;2022-08-27T07:38:44;1.42;;;0.30;;
57575;SDS011;43412;-33.800;150.804;2022-08-27T07:41:12;2.10;;;0.43;;
57575;SDS011;43412;-33.800;150.804;2022-08-27T07:43:39;2.03;;;0.50;;
57575;SDS011;43412;-33.800;150.804;2022-08-27T07:46:25;0.73;;;0.52;;
57575;SDS011;43412;-33.800;150.804;2022-08-27T07:48:53;1.27;;;0.68;;
57575;SDS011;43412;-33.800;150.804;2022-08-27T07:51:22;1.60;;;0.40;;
57575;SDS011;43412;-33.800;150.804;2022-08-27T07:53:51;0.38;;;0.20;;
57575;SDS011;43412;-33.800;150.804;2022-08-27T07:56:19;0.55;;;0.20;;
57575;SDS011;43412;-33.800;150.804;2022-08-27T07:58:47;1.15;;;0.30;;
57575;SDS011;43412;-33.800;150.804;2022-08-27T08:01:16;1.95;;;1.02;;
57575;SDS011;43412;-33.800;150.804;2022-08-27T08:03:43;3.30;;;2.50;;
57575;SDS011;43412;-33.800;150.804;2022-08-27T08:06:12;3.72;;;2.92;;
57575;SDS011;43412;-33.800;150.804;2022-08-27T08:08:41;3.95;;;3.45;;
57575;SDS011;43412;-33.800;150.804;2022-08-27T08:11:13;4.20;;;3.35;;
57575;SDS011;43412;-33.800;150.804;2022-08-27T08:13:43;8.23;;;4.43;;
57575;SDS011;43412;-33.800;150.804;2022-08-27T08:16:12;7.40;;;5.07;;
57575;SDS011;43412;-33.800;150.804;2022-08-27T08:18:40;4.55;;;4.07;;
57575;SDS011;43412;-33.800;150.804;2022-08-27T08:21:12;4.68;;;2.90;;
57575;SDS011;43412;-33.800;150.804;2022-08-27T08:23:40;4.03;;;2.45;;
57575;SDS011;43412;-33.800;150.804;2022-08-27T08:26:08;6.03;;;3.42;;
57575;SDS011;43412;-33.800;150.804;2022-08-27T08:28:37;7.57;;;4.50;;
57575;SDS011;43412;-33.800;150.804;2022-08-27T08:31:05;6.38;;;4.15;;
57575;SDS011;43412;-33.800;150.804;2022-08-27T08:33:33;12.32;;;9.30;;
57575;SDS011;43412;-33.800;150.804;2022-08-27T08:36:03;12.13;;;9.25;;
57575;SDS011;43412;-33.800;150.804;2022-08-27T08:38:36;4.13;;;3.72;;
57575;SDS011;43412;-33.800;150.804;2022-08-27T08:41:05;4.90;;;3.25;;
57575;SDS011;43412;-33.800;150.804;2022-08-27T08:43:45;5.45;;;2.58;;
57575;SDS011;43412;-33.800;150.804;2022-08-27T08:46:17;3.40;;;3.10;;
57575;SDS011;43412;-33.800;150.804;2022-08-27T08:48:51;4.35;;;3.70;;
57575;SDS011;43412;-33.800;150.804;2022-08-27T08:51:30;2.28;;;1.80;;
57575;SDS011;43412;-33.800;150.804;2022-08-27T08:54:03;2.22;;;1.65;;
57575;SDS011;43412;-33.800;150.804;2022-08-27T08:57:30;3.92;;;1.80;;
57575;SDS011;43412;-33.800;150.804;2022-08-27T09:00:05;1.02;;;0.85;;
57575;SDS011;43412;-33.800;150.804;2022-08-27T09:02:38;1.00;;;0.80;;
57575;SDS011;43412;-33.800;150.804;2022-08-27T09:05:08;1.45;;;0.90;;
57575;SDS011;43412;-33.800;150.804;2022-08-27T09:07:42;1.85;;;1.10;;
57575;SDS011;43412;-33.800;150.804;2022-08-27T09:10:37;1.05;;;0.70;;
57575;SDS011;43412;-33.800;150.804;2022-08-27T09:13:26;1.10;;;0.65;;
57575;SDS011;43412;-33.800;150.804;2022-08-27T09:16:12;2.17;;;1.02;;
57575;SDS011;43412;-33.800;150.804;2022-08-27T09:18:40;1.58;;;1.08;;
57575;SDS011;43412;-33.800;150.804;2022-08-27T09:23:52;3.03;;;2.67;;
57575;SDS011;43412;-33.800;150.804;2022-08-27T09:26:35;6.18;;;3.83;;
57575;SDS011;43412;-33.800;150.804;2022-08-27T09:29:06;6.30;;;5.80;;
57575;SDS011;43412;-33.800;150.804;2022-08-27T09:31:52;7.30;;;4.50;;
57575;SDS011;43412;-33.800;150.804;2022-08-27T09:34:23;5.85;;;5.35;;
57575;SDS011;43412;-33.800;150.804;2022-08-27T09:36:54;5.10;;;4.70;;
57575;SDS011;43412;-33.800;150.804;2022-08-27T09:42:42;4.57;;;3.63;;
57575;SDS011;43412;-33.800;150.804;2022-08-27T09:45:16;1.75;;;1.42;;
57575;SDS011;43412;-33.800;150.804;2022-08-27T09:47:44;3.13;;;1.10;;
57575;SDS011;43412;-33.800;150.804;2022-08-27T09:50:18;1.85;;;1.45;;
57575;SDS011;43412;-33.800;150.804;2022-08-27T09:52:55;6.65;;;6.05;;
57575;SDS011;43412;-33.800;150.804;2022-08-27T09:55:47;7.45;;;5.82;;
57575;SDS011;43412;-33.800;150.804;2022-08-27T09:58:20;7.95;;;5.75;;
57575;SDS011;43412;-33.800;150.804;2022-08-27T10:01:01;14.43;;;8.85;;
57575;SDS011;43412;-33.800;150.804;2022-08-27T10:03:31;9.68;;;6.95;;
57575;SDS011;43412;-33.800;150.804;2022-08-27T10:05:59;13.45;;;6.70;;
57575;SDS011;43412;-33.800;150.804;2022-08-27T10:10:55;7.78;;;5.30;;
57575;SDS011;43412;-33.800;150.804;2022-08-27T10:32:38;30.70;;;19.33;;
57575;SDS011;43412;-33.800;150.804;2022-08-27T10:35:28;23.85;;;13.52;;
57575;SDS011;43412;-33.800;150.804;2022-08-27T10:38:30;18.08;;;10.73;;
57575;SDS011;43412;-33.800;150.804;2022-08-27T10:41:28;21.13;;;14.18;;
57575;SDS011;43412;-33.800;150.804;2022-08-27T10:44:09;27.90;;;17.30;;
57575;SDS011;43412;-33.800;150.804;2022-08-27T10:49:49;13.57;;;9.70;;
57575;SDS011;43412;-33.800;150.804;2022-08-27T10:52:33;17.80;;;9.68;;
57575;SDS011;43412;-33.800;150.804;2022-08-27T10:55:18;12.07;;;8.10;;
57575;SDS011;43412;-33.800;150.804;2022-08-27T10:58:10;8.82;;;5.65;;
57575;SDS011;43412;-33.800;150.804;2022-08-27T11:03:59;5.25;;;4.57;;
57575;SDS011;43412;-33.800;150.804;2022-08-27T11:06:38;6.25;;;4.30;;
57575;SDS011;43412;-33.800;150.804;2022-08-27T11:09:15;4.63;;;4.13;;
57575;SDS011;43412;-33.800;150.804;2022-08-27T11:11:48;5.20;;;3.88;;
57575;SDS011;43412;-33.800;150.804;2022-08-27T11:17:49;4.97;;;3.88;;
57575;SDS011;43412;-33.800;150.804;2022-08-27T11:20:13;6.85;;;5.45;;
57575;SDS011;43412;-33.800;150.804;2022-08-27T11:27:51;11.32;;;7.95;;
57575;SDS011;43412;-33.800;150.804;2022-08-27T11:30:26;12.40;;;9.68;;
57575;SDS011;43412;-33.800;150.804;2022-08-27T11:39:26;9.60;;;7.93;;
57575;SDS011;43412;-33.800;150.804;2022-08-27T11:47:56;14.10;;;10.38;;
57575;SDS011;43412;-33.800;150.804;2022-08-27T11:50:26;11.38;;;10.07;;
57575;SDS011;43412;-33.800;150.804;2022-08-27T11:52:57;10.50;;;8.50;;
57575;SDS011;43412;-33.800;150.804;2022-08-27T11:55:33;9.70;;;7.78;;
57575;SDS011;43412;-33.800;150.804;2022-08-27T11:58:08;10.32;;;6.60;;
57575;SDS011;43412;-33.800;150.804;2022-08-27T12:00:47;16.98;;;10.20;;
57575;SDS011;43412;-33.800;150.804;2022-08-27T12:16:00;7.97;;;6.05;;
57575;SDS011;43412;-33.800;150.804;2022-08-27T12:26:39;8.88;;;6.72;;
57575;SDS011;43412;-33.800;150.804;2022-08-27T12:31:48;11.70;;;8.75;;
57575;SDS011;43412;-33.800;150.804;2022-08-27T12:34:41;10.95;;;7.80;;
57575;SDS011;43412;-33.800;150.804;2022-08-27T12:37:21;8.63;;;6.70;;
57575;SDS011;43412;-33.800;150.804;2022-08-27T12:39:52;9.55;;;5.50;;
57575;SDS011;43412;-33.800;150.804;2022-08-27T12:42:22;6.20;;;5.07;;
57575;SDS011;43412;-33.800;150.804;2022-08-27T12:44:56;9.75;;;6.65;;
57575;SDS011;43412;-33.800;150.804;2022-08-27T12:47:24;8.93;;;6.32;;
57575;SDS011;43412;-33.800;150.804;2022-08-27T12:49:53;7.05;;;5.32;;
57575;SDS011;43412;-33.800;150.804;2022-08-27T12:55:32;5.07;;;4.32;;
57575;SDS011;43412;-33.800;150.804;2022-08-27T13:03:38;6.50;;;4.88;;
57575;SDS011;43412;-33.800;150.804;2022-08-27T13:06:18;10.60;;;5.53;;
57575;SDS011;43412;-33.800;150.804;2022-08-27T13:08:59;7.97;;;5.90;;
57575;SDS011;43412;-33.800;150.804;2022-08-27T13:11:30;9.85;;;6.20;;
57575;SDS011;43412;-33.800;150.804;2022-08-27T13:14:04;9.27;;;6.57;;
57575;SDS011;43412;-33.800;150.804;2022-08-27T13:16:37;8.85;;;5.97;;
57575;SDS011;43412;-33.800;150.804;2022-08-27T13:19:24;8.02;;;5.63;;
57575;SDS011;43412;-33.800;150.804;2022-08-27T13:21:57;12.38;;;6.40;;
57575;SDS011;43412;-33.800;150.804;2022-08-27T13:24:43;9.77;;;7.63;;
57575;SDS011;43412;-33.800;150.804;2022-08-27T13:27:29;8.45;;;6.88;;
57575;SDS011;43412;-33.800;150.804;2022-08-27T13:29:59;14.45;;;9.48;;
57575;SDS011;43412;-33.800;150.804;2022-08-27T13:32:31;18.55;;;12.65;;
57575;SDS011;43412;-33.800;150.804;2022-08-27T13:35:01;11.05;;;8.40;;
57575;SDS011;43412;-33.800;150.804;2022-08-27T13:37:34;7.88;;;6.03;;
57575;SDS011;43412;-33.800;150.804;2022-08-27T13:40:09;7.30;;;5.15;;
57575;SDS011;43412;-33.800;150.804;2022-08-27T13:42:49;5.72;;;4.28;;
57575;SDS011;43412;-33.800;150.804;2022-08-27T13:45:17;5.38;;;4.35;;
57575;SDS011;43412;-33.800;150.804;2022-08-27T13:47:45;6.88;;;5.30;;
57575;SDS011;43412;-33.800;150.804;2022-08-27T13:50:21;7.15;;;4.80;;
57575;SDS011;43412;-33.800;150.804;2022-08-27T13:52:51;6.90;;;5.25;;
57575;SDS011;43412;-33.800;150.804;2022-08-27T13:55:45;6.47;;;5.07;;
57575;SDS011;43412;-33.800;150.804;2022-08-27T13:58:25;5.50;;;4.68;;
57575;SDS011;43412;-33.800;150.804;2022-08-27T14:00:54;6.75;;;4.25;;
57575;SDS011;43412;-33.800;150.804;2022-08-27T14:03:48;3.88;;;3.35;;
57575;SDS011;43412;-33.800;150.804;2022-08-27T14:06:32;4.50;;;3.97;;
57575;SDS011;43412;-33.800;150.804;2022-08-27T14:11:44;6.10;;;3.25;;
57575;SDS011;43412;-33.800;150.804;2022-08-27T14:14:13;5.63;;;4.07;;
57575;SDS011;43412;-33.800;150.804;2022-08-27T14:16:43;5.97;;;4.28;;
57575;SDS011;43412;-33.800;150.804;2022-08-27T14:19:25;4.45;;;4.05;;
57575;SDS011;43412;-33.800;150.804;2022-08-27T14:21:54;4.88;;;3.50;;
57575;SDS011;43412;-33.800;150.804;2022-08-27T14:24:22;3.88;;;3.53;;
57575;SDS011;43412;-33.800;150.804;2022-08-27T14:26:51;4.25;;;3.20;;
57575;SDS011;43412;-33.800;150.804;2022-08-27T14:29:20;4.18;;;3.40;;
57575;SDS011;43412;-33.800;150.804;2022-08-27T14:31:48;4.93;;;3.30;;
57575;SDS011;43412;-33.800;150.804;2022-08-27T14:34:15;4.57;;;3.10;;
57575;SDS011;43412;-33.800;150.804;2022-08-27T14:36:42;6.53;;;3.40;;
57575;SDS011;43412;-33.800;150.804;2022-08-27T14:39:10;5.97;;;3.55;;
57575;SDS011;43412;-33.800;150.804;2022-08-27T14:41:38;5.47;;;4.68;;
57575;SDS011;43412;-33.800;150.804;2022-08-27T14:44:06;4.20;;;3.40;;
57575;SDS011;43412;-33.800;150.804;2022-08-27T14:46:34;4.63;;;3.40;;
57575;SDS011;43412;-33.800;150.804;2022-08-27T14:49:04;4.50;;;3.47;;
57575;SDS011;43412;-33.800;150.804;2022-08-27T14:51:37;4.78;;;3.85;;
57575;SDS011;43412;-33.800;150.804;2022-08-27T14:54:08;4.50;;;3.03;;
57575;SDS011;43412;-33.800;150.804;2022-08-27T14:56:35;4.70;;;3.60;;
57575;SDS011;43412;-33.800;150.804;2022-08-27T14:59:03;3.40;;;2.90;;
57575;SDS011;43412;-33.800;150.804;2022-08-27T15:01:30;3.22;;;2.85;;
57575;SDS011;43412;-33.800;150.804;2022-08-27T15:04:03;3.55;;;2.90;;
57575;SDS011;43412;-33.800;150.804;2022-08-27T15:06:31;5.72;;;2.90;;
57575;SDS011;43412;-33.800;150.804;2022-08-27T15:08:58;3.20;;;2.90;;
57575;SDS011;43412;-33.800;150.804;2022-08-27T15:11:30;4.43;;;3.92;;
57575;SDS011;43412;-33.800;150.804;2022-08-27T15:14:02;4.25;;;3.58;;
57575;SDS011;43412;-33.800;150.804;2022-08-27T15:16:34;3.80;;;2.90;;
57575;SDS011;43412;-33.800;150.804;2022-08-27T15:19:04;4.57;;;3.70;;
57575;SDS011;43412;-33.800;150.804;2022-08-27T15:21:35;3.45;;;3.13;;
57575;SDS011;43412;-33.800;150.804;2022-08-27T15:24:05;5.68;;;4.47;;
57575;SDS011;43412;-33.800;150.804;2022-08-27T15:26:44;3.88;;;3.03;;
57575;SDS011;43412;-33.800;150.804;2022-08-27T15:29:12;5.47;;;3.60;;
57575;SDS011;43412;-33.800;150.804;2022-08-27T15:31:39;6.05;;;4.32;;
57575;SDS011;43412;-33.800;150.804;2022-08-27T15:34:08;4.82;;;3.75;;
57575;SDS011;43412;-33.800;150.804;2022-08-27T15:36:36;5.82;;;3.90;;
57575;SDS011;43412;-33.800;150.804;2022-08-27T15:39:04;3.85;;;3.50;;
57575;SDS011;43412;-33.800;150.804;2022-08-27T15:41:32;4.32;;;3.72;;
57575;SDS011;43412;-33.800;150.804;2022-08-27T15:44:00;4.45;;;3.80;;
57575;SDS011;43412;-33.800;150.804;2022-08-27T15:46:28;4.38;;;3.17;;
57575;SDS011;43412;-33.800;150.804;2022-08-27T15:48:56;5.18;;;3.67;;
57575;SDS011;43412;-33.800;150.804;2022-08-27T15:51:28;3.35;;;3.05;;
57575;SDS011;43412;-33.800;150.804;2022-08-27T15:53:58;4.03;;;3.58;;
57575;SDS011;43412;-33.800;150.804;2022-08-27T15:56:26;5.43;;;3.88;;
57575;SDS011;43412;-33.800;150.804;2022-08-27T15:58:54;3.55;;;3.25;;
57575;SDS011;43412;-33.800;150.804;2022-08-27T16:01:24;4.55;;;3.22;;
57575;SDS011;43412;-33.800;150.804;2022-08-27T16:03:54;4.30;;;3.38;;
57575;SDS011;43412;-33.800;150.804;2022-08-27T16:06:24;4.05;;;3.03;;